sensor_id;sensor_type;location;lat;lon;timestamp;temperature;humidity
44215;DHT22;29884;47.450;19.124;2023-11-18T00:02:18;4.70;99.90
44215;DHT22;29884;47.450;19.124;2023-11-18T00:04:43;4.70;99.90
44215;DHT22;29884;47.450;19.124;2023-11-18T00:07:09;4.60;99.90
44215;DHT22;29884;47.450;19.124;2023-11-18T00:09:35;4.60;99.90
44215;DHT22;29884;47.450;19.124;2023-11-18T00:12:00;4.60;99.90
44215;DHT22;29884;47.450;19.124;2023-11-18T00:14:26;4.60;99.90
44215;DHT22;29884;47.450;19.124;2023-11-18T00:16:52;4.60;99.90
44215;DHT22;29884;47.450;19.124;2023-11-18T00:19:18;4.60;99.90
44215;DHT22;29884;47.450;19.124;2023-11-18T00:21:44;4.60;99.90
44215;DHT22;29884;47.450;19.124;2023-11-18T00:24:09;4.60;99.90
44215;DHT22;29884;47.450;19.124;2023-11-18T00:26:35;4.50;99.90
44215;DHT22;29884;47.450;19.124;2023-11-18T00:29:01;4.60;99.90
44215;DHT22;29884;47.450;19.124;2023-11-18T00:31:27;4.60;99.90
44215;DHT22;29884;47.450;19.124;2023-11-18T00:33:52;4.70;99.90
44215;DHT22;29884;47.450;19.124;2023-11-18T00:36:18;4.60;99.90
44215;DHT22;29884;47.450;19.124;2023-11-18T00:38:44;4.60;99.90
44215;DHT22;29884;47.450;19.124;2023-11-18T00:41:09;4.60;99.90
44215;DHT22;29884;47.450;19.124;2023-11-18T00:43:35;4.60;99.90
44215;DHT22;29884;47.450;19.124;2023-11-18T00:46:01;4.50;99.90
44215;DHT22;29884;47.450;19.124;2023-11-18T00:48:30;4.50;99.90
44215;DHT22;29884;47.450;19.124;2023-11-18T00:50:56;4.50;99.90
44215;DHT22;29884;47.450;19.124;2023-11-18T00:53:22;4.50;99.90
44215;DHT22;29884;47.450;19.124;2023-11-18T00:55:48;4.50;99.90
44215;DHT22;29884;47.450;19.124;2023-11-18T00:58:14;4.50;99.90
44215;DHT22;29884;47.450;19.124;2023-11-18T01:00:40;4.50;99.90
44215;DHT22;29884;47.450;19.124;2023-11-18T01:03:05;4.50;99.90
44215;DHT22;29884;47.450;19.124;2023-11-18T01:05:31;4.50;99.90
44215;DHT22;29884;47.450;19.124;2023-11-18T01:07:57;4.60;99.90
44215;DHT22;29884;47.450;19.124;2023-11-18T01:10:23;4.50;99.90
44215;DHT22;29884;47.450;19.124;2023-11-18T01:12:49;4.50;99.90
44215;DHT22;29884;47.450;19.124;2023-11-18T01:15:14;4.50;99.90
44215;DHT22;29884;47.450;19.124;2023-11-18T01:17:40;4.50;99.90
44215;DHT22;29884;47.450;19.124;2023-11-18T01:20:07;4.50;99.90
44215;DHT22;29884;47.450;19.124;2023-11-18T01:22:39;4.50;99.90
44215;DHT22;29884;47.450;19.124;2023-11-18T01:25:07;4.50;99.90
44215;DHT22;29884;47.450;19.124;2023-11-18T01:27:34;4.40;99.90
44215;DHT22;29884;47.450;19.124;2023-11-18T01:30:00;4.40;99.90
44215;DHT22;29884;47.450;19.124;2023-11-18T01:32:26;4.50;99.90
44215;DHT22;29884;47.450;19.124;2023-11-18T01:34:52;4.40;99.90
44215;DHT22;29884;47.450;19.124;2023-11-18T01:37:19;4.40;99.90
44215;DHT22;29884;47.450;19.124;2023-11-18T01:39:46;4.40;99.90
44215;DHT22;29884;47.450;19.124;2023-11-18T01:42:12;4.40;99.90
44215;DHT22;29884;47.450;19.124;2023-11-18T01:44:38;4.40;99.90
44215;DHT22;29884;47.450;19.124;2023-11-18T01:47:05;4.40;99.90
44215;DHT22;29884;47.450;19.124;2023-11-18T01:49:32;4.40;99.90
44215;DHT22;29884;47.450;19.124;2023-11-18T01:52:00;4.40;99.90
44215;DHT22;29884;47.450;19.124;2023-11-18T01:54:27;4.40;99.90
44215;DHT22;29884;47.450;19.124;2023-11-18T01:56:54;4.40;99.90
44215;DHT22;29884;47.450;19.124;2023-11-18T01:59:20;4.40;99.90
44215;DHT22;29884;47.450;19.124;2023-11-18T02:01:52;4.40;99.90
44215;DHT22;29884;47.450;19.124;2023-11-18T02:04:20;4.40;99.90
44215;DHT22;29884;47.450;19.124;2023-11-18T02:06:48;4.30;99.90
44215;DHT22;29884;47.450;19.124;2023-11-18T02:09:15;4.30;99.90
44215;DHT22;29884;47.450;19.124;2023-11-18T02:14:42;4.20;99.90
44215;DHT22;29884;47.450;19.124;2023-11-18T02:17:13;4.30;99.90
44215;DHT22;29884;47.450;19.124;2023-11-18T02:19:40;4.20;99.90
44215;DHT22;29884;47.450;19.124;2023-11-18T02:22:07;4.20;99.90
44215;DHT22;29884;47.450;19.124;2023-11-18T02:24:33;4.30;99.90
44215;DHT22;29884;47.450;19.124;2023-11-18T02:27:04;4.30;99.90
44215;DHT22;29884;47.450;19.124;2023-11-18T02:29:37;4.30;99.90
44215;DHT22;29884;47.450;19.124;2023-11-18T02:34:56;4.20;99.90
44215;DHT22;29884;47.450;19.124;2023-11-18T02:37:25;4.30;99.90
44215;DHT22;29884;47.450;19.124;2023-11-18T02:39:55;4.30;99.90
44215;DHT22;29884;47.450;19.124;2023-11-18T02:42:23;4.20;99.90
44215;DHT22;29884;47.450;19.124;2023-11-18T02:44:51;4.30;99.90
44215;DHT22;29884;47.450;19.124;2023-11-18T02:47:25;4.30;99.90
44215;DHT22;29884;47.450;19.124;2023-11-18T02:49:55;4.30;99.90
44215;DHT22;29884;47.450;19.124;2023-11-18T02:52:32;4.30;99.90
44215;DHT22;29884;47.450;19.124;2023-11-18T02:55:00;4.30;99.90
44215;DHT22;29884;47.450;19.124;2023-11-18T02:57:26;4.30;99.90
44215;DHT22;29884;47.450;19.124;2023-11-18T02:59:51;4.30;99.90
44215;DHT22;29884;47.450;19.124;2023-11-18T03:02:17;4.40;99.90
44215;DHT22;29884;47.450;19.124;2023-11-18T03:04:46;4.40;99.90
44215;DHT22;29884;47.450;19.124;2023-11-18T03:07:12;4.40;99.90
44215;DHT22;29884;47.450;19.124;2023-11-18T03:09:37;4.30;99.90
44215;DHT22;29884;47.450;19.124;2023-11-18T03:12:06;4.30;99.90
44215;DHT22;29884;47.450;19.124;2023-11-18T03:14:33;4.30;99.90
44215;DHT22;29884;47.450;19.124;2023-11-18T03:17:01;4.30;99.90
44215;DHT22;29884;47.450;19.124;2023-11-18T03:19:26;4.40;99.90
44215;DHT22;29884;47.450;19.124;2023-11-18T03:21:53;4.30;99.90
44215;DHT22;29884;47.450;19.124;2023-11-18T03:24:19;4.40;99.90
44215;DHT22;29884;47.450;19.124;2023-11-18T03:26:44;4.40;99.90
44215;DHT22;29884;47.450;19.124;2023-11-18T03:29:10;4.40;99.90
44215;DHT22;29884;47.450;19.124;2023-11-18T03:31:38;4.40;99.90
44215;DHT22;29884;47.450;19.124;2023-11-18T03:34:04;4.40;99.90
44215;DHT22;29884;47.450;19.124;2023-11-18T03:36:30;4.40;99.90
44215;DHT22;29884;47.450;19.124;2023-11-18T03:38:55;4.30;99.90
44215;DHT22;29884;47.450;19.124;2023-11-18T03:41:21;4.30;99.90
44215;DHT22;29884;47.450;19.124;2023-11-18T03:43:49;4.30;99.90
44215;DHT22;29884;47.450;19.124;2023-11-18T03:46:15;4.40;99.90
44215;DHT22;29884;47.450;19.124;2023-11-18T03:48:41;4.40;99.90
44215;DHT22;29884;47.450;19.124;2023-11-18T03:51:09;4.40;99.90
44215;DHT22;29884;47.450;19.124;2023-11-18T03:53:35;4.40;99.90
44215;DHT22;29884;47.450;19.124;2023-11-18T03:56:01;4.40;99.90
44215;DHT22;29884;47.450;19.124;2023-11-18T03:58:28;4.40;99.90
44215;DHT22;29884;47.450;19.124;2023-11-18T04:00:54;4.40;99.90
44215;DHT22;29884;47.450;19.124;2023-11-18T04:03:19;4.50;99.90
44215;DHT22;29884;47.450;19.124;2023-11-18T04:05:45;4.50;99.90
44215;DHT22;29884;47.450;19.124;2023-11-18T04:08:11;4.50;99.90
44215;DHT22;29884;47.450;19.124;2023-11-18T04:10:37;4.40;99.90
44215;DHT22;29884;47.450;19.124;2023-11-18T04:13:02;4.50;99.90
44215;DHT22;29884;47.450;19.124;2023-11-18T04:15:28;4.40;99.90
44215;DHT22;29884;47.450;19.124;2023-11-18T04:17:54;4.50;99.90
44215;DHT22;29884;47.450;19.124;2023-11-18T04:20:20;4.50;99.90
44215;DHT22;29884;47.450;19.124;2023-11-18T04:22:46;4.50;99.90
44215;DHT22;29884;47.450;19.124;2023-11-18T04:25:12;4.50;99.90
44215;DHT22;29884;47.450;19.124;2023-11-18T04:27:38;4.40;99.90
44215;DHT22;29884;47.450;19.124;2023-11-18T04:30:05;4.40;99.90
44215;DHT22;29884;47.450;19.124;2023-11-18T04:32:31;4.50;99.90
44215;DHT22;29884;47.450;19.124;2023-11-18T04:35:00;4.60;99.90
44215;DHT22;29884;47.450;19.124;2023-11-18T04:37:35;4.60;99.90
44215;DHT22;29884;47.450;19.124;2023-11-18T04:40:02;4.60;99.90
44215;DHT22;29884;47.450;19.124;2023-11-18T04:42:28;4.60;99.90
44215;DHT22;29884;47.450;19.124;2023-11-18T04:44:58;4.60;99.90
44215;DHT22;29884;47.450;19.124;2023-11-18T04:47:23;4.70;99.90
44215;DHT22;29884;47.450;19.124;2023-11-18T04:49:51;4.70;99.90
44215;DHT22;29884;47.450;19.124;2023-11-18T04:52:17;4.70;99.90
44215;DHT22;29884;47.450;19.124;2023-11-18T04:54:44;4.80;99.90
44215;DHT22;29884;47.450;19.124;2023-11-18T04:57:09;4.80;99.90
44215;DHT22;29884;47.450;19.124;2023-11-18T04:59:36;4.70;99.90
44215;DHT22;29884;47.450;19.124;2023-11-18T05:02:01;4.70;99.90
44215;DHT22;29884;47.450;19.124;2023-11-18T05:04:28;4.70;99.90
44215;DHT22;29884;47.450;19.124;2023-11-18T05:06:55;4.70;99.90
44215;DHT22;29884;47.450;19.124;2023-11-18T05:09:20;4.80;99.90
44215;DHT22;29884;47.450;19.124;2023-11-18T05:11:46;4.80;99.90
44215;DHT22;29884;47.450;19.124;2023-11-18T05:14:12;4.80;99.90
44215;DHT22;29884;47.450;19.124;2023-11-18T05:16:38;4.80;99.90
44215;DHT22;29884;47.450;19.124;2023-11-18T05:19:04;4.90;99.90
44215;DHT22;29884;47.450;19.124;2023-11-18T05:21:30;4.90;99.90
44215;DHT22;29884;47.450;19.124;2023-11-18T05:23:56;4.90;99.90
44215;DHT22;29884;47.450;19.124;2023-11-18T05:26:22;4.80;99.90
44215;DHT22;29884;47.450;19.124;2023-11-18T05:28:48;4.80;99.90
44215;DHT22;29884;47.450;19.124;2023-11-18T05:31:15;4.90;99.90
44215;DHT22;29884;47.450;19.124;2023-11-18T05:33:41;4.90;99.90
44215;DHT22;29884;47.450;19.124;2023-11-18T05:36:07;4.90;99.90
44215;DHT22;29884;47.450;19.124;2023-11-18T05:38:33;4.90;99.90
44215;DHT22;29884;47.450;19.124;2023-11-18T05:41:01;4.90;99.90
44215;DHT22;29884;47.450;19.124;2023-11-18T05:43:32;4.90;99.90
44215;DHT22;29884;47.450;19.124;2023-11-18T05:46:16;4.90;99.90
44215;DHT22;29884;47.450;19.124;2023-11-18T05:48:50;4.80;99.90
44215;DHT22;29884;47.450;19.124;2023-11-18T05:51:22;4.80;99.90
44215;DHT22;29884;47.450;19.124;2023-11-18T05:53:48;4.80;99.90
44215;DHT22;29884;47.450;19.124;2023-11-18T05:56:15;4.80;99.90
44215;DHT22;29884;47.450;19.124;2023-11-18T05:58:44;4.70;99.90
44215;DHT22;29884;47.450;19.124;2023-11-18T06:01:11;4.70;99.90
44215;DHT22;29884;47.450;19.124;2023-11-18T06:03:38;4.70;99.90
44215;DHT22;29884;47.450;19.124;2023-11-18T06:06:07;4.70;99.90
44215;DHT22;29884;47.450;19.124;2023-11-18T06:08:34;4.70;99.90
44215;DHT22;29884;47.450;19.124;2023-11-18T06:11:00;4.70;99.90
44215;DHT22;29884;47.450;19.124;2023-11-18T06:13:41;4.70;99.90
44215;DHT22;29884;47.450;19.124;2023-11-18T06:16:24;4.70;99.90
44215;DHT22;29884;47.450;19.124;2023-11-18T06:18:52;4.60;99.90
44215;DHT22;29884;47.450;19.124;2023-11-18T06:21:25;4.60;99.90
44215;DHT22;29884;47.450;19.124;2023-11-18T06:23:59;4.70;99.90
44215;DHT22;29884;47.450;19.124;2023-11-18T06:26:25;4.80;99.90
44215;DHT22;29884;47.450;19.124;2023-11-18T06:28:53;4.90;99.90
44215;DHT22;29884;47.450;19.124;2023-11-18T06:31:20;4.90;99.90
44215;DHT22;29884;47.450;19.124;2023-11-18T06:33:47;4.90;99.90
44215;DHT22;29884;47.450;19.124;2023-11-18T06:38:44;5.00;99.90
44215;DHT22;29884;47.450;19.124;2023-11-18T06:41:10;5.00;99.90
44215;DHT22;29884;47.450;19.124;2023-11-18T06:43:38;5.00;99.90
44215;DHT22;29884;47.450;19.124;2023-11-18T06:46:20;5.10;99.90
44215;DHT22;29884;47.450;19.124;2023-11-18T06:48:53;5.10;99.90
44215;DHT22;29884;47.450;19.124;2023-11-18T06:51:29;5.10;99.90
44215;DHT22;29884;47.450;19.124;2023-11-18T06:53:56;5.10;99.90
44215;DHT22;29884;47.450;19.124;2023-11-18T06:56:24;5.10;99.90
44215;DHT22;29884;47.450;19.124;2023-11-18T06:58:50;5.10;99.90
44215;DHT22;29884;47.450;19.124;2023-11-18T07:01:16;5.10;99.90
44215;DHT22;29884;47.450;19.124;2023-11-18T07:03:43;5.10;99.90
44215;DHT22;29884;47.450;19.124;2023-11-18T07:06:09;5.10;99.90
44215;DHT22;29884;47.450;19.124;2023-11-18T07:08:38;5.20;99.90
44215;DHT22;29884;47.450;19.124;2023-11-18T07:11:05;5.20;99.90
44215;DHT22;29884;47.450;19.124;2023-11-18T07:13:32;5.30;99.90
44215;DHT22;29884;47.450;19.124;2023-11-18T07:16:00;5.30;99.90
44215;DHT22;29884;47.450;19.124;2023-11-18T07:18:29;5.30;99.90
44215;DHT22;29884;47.450;19.124;2023-11-18T07:21:01;5.40;99.90
44215;DHT22;29884;47.450;19.124;2023-11-18T07:23:30;5.40;99.90
44215;DHT22;29884;47.450;19.124;2023-11-18T07:25:55;5.50;99.90
44215;DHT22;29884;47.450;19.124;2023-11-18T07:28:21;5.50;99.90
44215;DHT22;29884;47.450;19.124;2023-11-18T07:30:48;5.60;99.90
44215;DHT22;29884;47.450;19.124;2023-11-18T07:33:17;5.60;99.90
44215;DHT22;29884;47.450;19.124;2023-11-18T07:35:44;5.60;99.90
44215;DHT22;29884;47.450;19.124;2023-11-18T07:38:12;5.70;99.90
44215;DHT22;29884;47.450;19.124;2023-11-18T07:40:38;5.80;99.90
44215;DHT22;29884;47.450;19.124;2023-11-18T07:43:13;5.80;99.90
44215;DHT22;29884;47.450;19.124;2023-11-18T07:45:40;5.80;99.90
44215;DHT22;29884;47.450;19.124;2023-11-18T07:48:06;5.90;99.90
44215;DHT22;29884;47.450;19.124;2023-11-18T07:50:39;6.00;99.90
44215;DHT22;29884;47.450;19.124;2023-11-18T07:53:10;6.00;99.90
44215;DHT22;29884;47.450;19.124;2023-11-18T07:55:36;6.20;99.90
44215;DHT22;29884;47.450;19.124;2023-11-18T07:58:06;6.10;99.90
44215;DHT22;29884;47.450;19.124;2023-11-18T08:00:41;6.20;99.90
44215;DHT22;29884;47.450;19.124;2023-11-18T08:03:08;6.20;99.90
44215;DHT22;29884;47.450;19.124;2023-11-18T08:05:41;6.10;99.90
44215;DHT22;29884;47.450;19.124;2023-11-18T08:08:09;6.20;99.90
44215;DHT22;29884;47.450;19.124;2023-11-18T08:10:36;6.20;99.90
44215;DHT22;29884;47.450;19.124;2023-11-18T08:13:04;6.20;99.90
44215;DHT22;29884;47.450;19.124;2023-11-18T08:15:30;6.20;99.90
44215;DHT22;29884;47.450;19.124;2023-11-18T08:17:56;6.30;99.90
44215;DHT22;29884;47.450;19.124;2023-11-18T08:20:22;6.30;99.90
44215;DHT22;29884;47.450;19.124;2023-11-18T08:22:50;6.30;99.90
44215;DHT22;29884;47.450;19.124;2023-11-18T08:25:16;6.30;99.90
44215;DHT22;29884;47.450;19.124;2023-11-18T08:27:43;6.40;99.90
44215;DHT22;29884;47.450;19.124;2023-11-18T08:30:12;6.40;99.90
44215;DHT22;29884;47.450;19.124;2023-11-18T08:32:45;6.40;99.90
44215;DHT22;29884;47.450;19.124;2023-11-18T08:35:14;6.50;99.90
44215;DHT22;29884;47.450;19.124;2023-11-18T08:37:41;6.50;99.90
44215;DHT22;29884;47.450;19.124;2023-11-18T08:40:11;6.50;99.90
44215;DHT22;29884;47.450;19.124;2023-11-18T08:42:51;6.70;99.90
44215;DHT22;29884;47.450;19.124;2023-11-18T08:45:23;6.60;99.90
44215;DHT22;29884;47.450;19.124;2023-11-18T08:47:59;6.70;99.90
44215;DHT22;29884;47.450;19.124;2023-11-18T08:50:27;6.70;99.90
44215;DHT22;29884;47.450;19.124;2023-11-18T08:52:54;6.90;99.90
44215;DHT22;29884;47.450;19.124;2023-11-18T08:55:24;6.90;99.90
44215;DHT22;29884;47.450;19.124;2023-11-18T08:58:04;6.80;99.90
44215;DHT22;29884;47.450;19.124;2023-11-18T09:00:41;6.90;99.90
44215;DHT22;29884;47.450;19.124;2023-11-18T09:03:16;6.90;99.90
44215;DHT22;29884;47.450;19.124;2023-11-18T09:08:46;7.00;99.90
44215;DHT22;29884;47.450;19.124;2023-11-18T09:11:18;7.00;99.90
44215;DHT22;29884;47.450;19.124;2023-11-18T09:13:46;7.00;99.90
44215;DHT22;29884;47.450;19.124;2023-11-18T09:16:25;7.20;99.90
44215;DHT22;29884;47.450;19.124;2023-11-18T09:18:54;7.10;99.90
44215;DHT22;29884;47.450;19.124;2023-11-18T09:21:20;7.20;99.90
44215;DHT22;29884;47.450;19.124;2023-11-18T09:23:50;7.20;99.90
44215;DHT22;29884;47.450;19.124;2023-11-18T09:26:16;7.30;99.90
44215;DHT22;29884;47.450;19.124;2023-11-18T09:28:42;7.10;99.90
44215;DHT22;29884;47.450;19.124;2023-11-18T09:31:10;7.20;99.90
44215;DHT22;29884;47.450;19.124;2023-11-18T09:33:40;7.20;99.90
44215;DHT22;29884;47.450;19.124;2023-11-18T09:36:11;7.30;99.90
44215;DHT22;29884;47.450;19.124;2023-11-18T09:38:39;7.20;99.90
44215;DHT22;29884;47.450;19.124;2023-11-18T09:41:09;7.30;99.90
44215;DHT22;29884;47.450;19.124;2023-11-18T09:46:22;7.30;99.90
44215;DHT22;29884;47.450;19.124;2023-11-18T09:48:50;7.50;99.90
44215;DHT22;29884;47.450;19.124;2023-11-18T09:51:26;7.60;99.90
44215;DHT22;29884;47.450;19.124;2023-11-18T09:53:59;7.70;99.90
44215;DHT22;29884;47.450;19.124;2023-11-18T09:56:47;7.80;99.90
44215;DHT22;29884;47.450;19.124;2023-11-18T10:02:10;7.70;99.90
44215;DHT22;29884;47.450;19.124;2023-11-18T10:04:39;7.50;99.90
44215;DHT22;29884;47.450;19.124;2023-11-18T10:07:09;7.50;99.90
44215;DHT22;29884;47.450;19.124;2023-11-18T10:09:36;7.60;99.90
44215;DHT22;29884;47.450;19.124;2023-11-18T10:12:08;7.60;99.90
44215;DHT22;29884;47.450;19.124;2023-11-18T10:14:41;7.60;99.90
44215;DHT22;29884;47.450;19.124;2023-11-18T10:17:09;7.40;99.90
44215;DHT22;29884;47.450;19.124;2023-11-18T10:20:10;7.30;99.90
44215;DHT22;29884;47.450;19.124;2023-11-18T10:22:38;7.50;99.90
44215;DHT22;29884;47.450;19.124;2023-11-18T10:25:06;7.50;99.90
44215;DHT22;29884;47.450;19.124;2023-11-18T10:27:32;7.60;99.90
44215;DHT22;29884;47.450;19.124;2023-11-18T10:30:04;7.70;99.90
44215;DHT22;29884;47.450;19.124;2023-11-18T10:32:30;7.60;99.90
44215;DHT22;29884;47.450;19.124;2023-11-18T10:35:01;7.60;99.90
44215;DHT22;29884;47.450;19.124;2023-11-18T10:37:31;7.60;99.90
44215;DHT22;29884;47.450;19.124;2023-11-18T10:39:57;7.70;99.90
44215;DHT22;29884;47.450;19.124;2023-11-18T10:42:35;7.80;99.90
44215;DHT22;29884;47.450;19.124;2023-11-18T10:45:02;7.60;99.90
44215;DHT22;29884;47.450;19.124;2023-11-18T10:47:32;7.70;99.90
44215;DHT22;29884;47.450;19.124;2023-11-18T10:49:58;7.80;99.90
44215;DHT22;29884;47.450;19.124;2023-11-18T10:52:24;7.80;99.90
44215;DHT22;29884;47.450;19.124;2023-11-18T10:54:52;7.90;99.90
44215;DHT22;29884;47.450;19.124;2023-11-18T10:57:24;7.90;99.90
44215;DHT22;29884;47.450;19.124;2023-11-18T11:00:07;7.90;99.90
44215;DHT22;29884;47.450;19.124;2023-11-18T11:02:44;8.00;99.90
44215;DHT22;29884;47.450;19.124;2023-11-18T11:05:11;8.00;99.90
44215;DHT22;29884;47.450;19.124;2023-11-18T11:07:45;8.10;99.90
44215;DHT22;29884;47.450;19.124;2023-11-18T11:10:11;8.10;99.90
44215;DHT22;29884;47.450;19.124;2023-11-18T11:13:02;8.20;99.90
44215;DHT22;29884;47.450;19.124;2023-11-18T11:15:32;8.10;99.90
44215;DHT22;29884;47.450;19.124;2023-11-18T11:18:05;8.10;99.90
44215;DHT22;29884;47.450;19.124;2023-11-18T11:20:42;8.20;99.90
44215;DHT22;29884;47.450;19.124;2023-11-18T11:23:27;8.30;99.90
44215;DHT22;29884;47.450;19.124;2023-11-18T11:29:02;8.30;99.90
44215;DHT22;29884;47.450;19.124;2023-11-18T11:31:38;8.00;99.90
44215;DHT22;29884;47.450;19.124;2023-11-18T11:34:17;8.00;99.90
44215;DHT22;29884;47.450;19.124;2023-11-18T11:36:49;8.00;99.90
44215;DHT22;29884;47.450;19.124;2023-11-18T11:39:17;8.00;99.90
44215;DHT22;29884;47.450;19.124;2023-11-18T11:41:51;8.20;99.90
44215;DHT22;29884;47.450;19.124;2023-11-18T11:44:17;8.40;99.90
44215;DHT22;29884;47.450;19.124;2023-11-18T11:46:47;8.30;99.90
44215;DHT22;29884;47.450;19.124;2023-11-18T11:49:20;8.40;99.90
44215;DHT22;29884;47.450;19.124;2023-11-18T11:52:00;8.40;99.90
44215;DHT22;29884;47.450;19.124;2023-11-18T11:54:34;8.20;99.90
44215;DHT22;29884;47.450;19.124;2023-11-18T11:57:03;8.10;99.90
44215;DHT22;29884;47.450;19.124;2023-11-18T12:02:26;8.00;99.90
44215;DHT22;29884;47.450;19.124;2023-11-18T12:04:58;8.20;99.90
44215;DHT22;29884;47.450;19.124;2023-11-18T12:07:27;8.20;99.30
44215;DHT22;29884;47.450;19.124;2023-11-18T12:09:59;8.10;98.50
44215;DHT22;29884;47.450;19.124;2023-11-18T12:12:26;8.10;98.70
44215;DHT22;29884;47.450;19.124;2023-11-18T12:14:57;8.10;98.50
44215;DHT22;29884;47.450;19.124;2023-11-18T12:20:43;8.30;98.60
44215;DHT22;29884;47.450;19.124;2023-11-18T12:23:23;8.40;98.70
44215;DHT22;29884;47.450;19.124;2023-11-18T12:25:50;8.50;98.40
44215;DHT22;29884;47.450;19.124;2023-11-18T12:28:32;8.50;98.10
44215;DHT22;29884;47.450;19.124;2023-11-18T12:31:11;8.40;98.40
44215;DHT22;29884;47.450;19.124;2023-11-18T12:42:09;7.90;98.00
44215;DHT22;29884;47.450;19.124;2023-11-18T12:47:42;8.10;98.20
44215;DHT22;29884;47.450;19.124;2023-11-18T12:50:11;8.30;97.40
44215;DHT22;29884;47.450;19.124;2023-11-18T12:52:51;8.30;97.00
44215;DHT22;29884;47.450;19.124;2023-11-18T12:55:17;8.00;97.00
44215;DHT22;29884;47.450;19.124;2023-11-18T12:57:47;7.90;98.00
44215;DHT22;29884;47.450;19.124;2023-11-18T13:00:16;8.10;97.30
44215;DHT22;29884;47.450;19.124;2023-11-18T13:02:53;8.10;97.10
44215;DHT22;29884;47.450;19.124;2023-11-18T13:05:20;8.20;97.50
44215;DHT22;29884;47.450;19.124;2023-11-18T13:07:46;8.10;97.20
44215;DHT22;29884;47.450;19.124;2023-11-18T13:10:14;8.10;97.70
44215;DHT22;29884;47.450;19.124;2023-11-18T13:12:41;8.10;97.80
44215;DHT22;29884;47.450;19.124;2023-11-18T13:15:09;8.10;98.00
44215;DHT22;29884;47.450;19.124;2023-11-18T13:17:35;8.10;98.30
44215;DHT22;29884;47.450;19.124;2023-11-18T13:20:13;8.00;97.60
44215;DHT22;29884;47.450;19.124;2023-11-18T13:22:41;7.90;96.80
44215;DHT22;29884;47.450;19.124;2023-11-18T13:25:07;7.80;97.30
44215;DHT22;29884;47.450;19.124;2023-11-18T13:27:33;7.90;97.70
44215;DHT22;29884;47.450;19.124;2023-11-18T13:29:58;7.90;98.00
44215;DHT22;29884;47.450;19.124;2023-11-18T13:32:24;7.80;97.40
44215;DHT22;29884;47.450;19.124;2023-11-18T13:34:52;7.80;97.20
44215;DHT22;29884;47.450;19.124;2023-11-18T13:37:18;7.80;97.50
44215;DHT22;29884;47.450;19.124;2023-11-18T13:39:55;7.80;98.00
44215;DHT22;29884;47.450;19.124;2023-11-18T13:42:21;7.80;98.00
44215;DHT22;29884;47.450;19.124;2023-11-18T13:44:48;7.70;98.00
44215;DHT22;29884;47.450;19.124;2023-11-18T13:47:18;7.50;98.40
44215;DHT22;29884;47.450;19.124;2023-11-18T13:49:44;7.50;98.90
44215;DHT22;29884;47.450;19.124;2023-11-18T13:52:13;7.40;99.00
44215;DHT22;29884;47.450;19.124;2023-11-18T13:54:41;7.40;98.90
44215;DHT22;29884;47.450;19.124;2023-11-18T13:57:10;7.30;99.30
44215;DHT22;29884;47.450;19.124;2023-11-18T13:59:37;7.30;99.30
44215;DHT22;29884;47.450;19.124;2023-11-18T14:02:04;7.30;99.70
44215;DHT22;29884;47.450;19.124;2023-11-18T14:04:31;7.20;99.70
44215;DHT22;29884;47.450;19.124;2023-11-18T14:07:03;7.20;99.90
44215;DHT22;29884;47.450;19.124;2023-11-18T14:09:37;7.20;99.90
44215;DHT22;29884;47.450;19.124;2023-11-18T14:12:07;7.10;99.60
44215;DHT22;29884;47.450;19.124;2023-11-18T14:14:33;7.10;99.90
44215;DHT22;29884;47.450;19.124;2023-11-18T14:16:59;7.10;99.70
44215;DHT22;29884;47.450;19.124;2023-11-18T14:19:28;7.00;99.90
44215;DHT22;29884;47.450;19.124;2023-11-18T14:21:57;7.00;99.90
44215;DHT22;29884;47.450;19.124;2023-11-18T14:24:23;7.00;99.90
44215;DHT22;29884;47.450;19.124;2023-11-18T14:26:55;7.00;99.90
44215;DHT22;29884;47.450;19.124;2023-11-18T14:29:22;6.90;99.90
44215;DHT22;29884;47.450;19.124;2023-11-18T14:31:48;6.80;99.60
44215;DHT22;29884;47.450;19.124;2023-11-18T14:34:14;6.90;99.90
44215;DHT22;29884;47.450;19.124;2023-11-18T14:36:41;6.80;99.90
44215;DHT22;29884;47.450;19.124;2023-11-18T14:39:08;6.80;99.90
44215;DHT22;29884;47.450;19.124;2023-11-18T14:41:36;6.80;99.90
44215;DHT22;29884;47.450;19.124;2023-11-18T14:44:02;6.70;99.90
44215;DHT22;29884;47.450;19.124;2023-11-18T14:46:30;6.60;99.90
44215;DHT22;29884;47.450;19.124;2023-11-18T14:48:59;6.60;99.90
44215;DHT22;29884;47.450;19.124;2023-11-18T14:51:25;6.60;99.90
44215;DHT22;29884;47.450;19.124;2023-11-18T14:53:51;6.50;99.90
44215;DHT22;29884;47.450;19.124;2023-11-18T14:56:17;6.50;99.90
44215;DHT22;29884;47.450;19.124;2023-11-18T14:58:43;6.50;99.90
44215;DHT22;29884;47.450;19.124;2023-11-18T15:01:14;6.50;99.90
44215;DHT22;29884;47.450;19.124;2023-11-18T15:03:40;6.40;99.90
44215;DHT22;29884;47.450;19.124;2023-11-18T15:06:06;6.40;99.90
44215;DHT22;29884;47.450;19.124;2023-11-18T15:08:32;6.30;99.90
44215;DHT22;29884;47.450;19.124;2023-11-18T15:10:59;6.20;99.90
44215;DHT22;29884;47.450;19.124;2023-11-18T15:13:25;6.20;99.90
44215;DHT22;29884;47.450;19.124;2023-11-18T15:15:50;6.20;99.90
44215;DHT22;29884;47.450;19.124;2023-11-18T15:18:16;6.10;99.90
44215;DHT22;29884;47.450;19.124;2023-11-18T15:20:46;6.10;99.90
44215;DHT22;29884;47.450;19.124;2023-11-18T15:23:13;6.00;99.90
44215;DHT22;29884;47.450;19.124;2023-11-18T15:25:39;6.00;99.90
44215;DHT22;29884;47.450;19.124;2023-11-18T15:28:08;6.00;99.90
44215;DHT22;29884;47.450;19.124;2023-11-18T15:30:37;6.00;99.90
44215;DHT22;29884;47.450;19.124;2023-11-18T15:33:03;5.90;99.90
44215;DHT22;29884;47.450;19.124;2023-11-18T15:35:29;5.80;99.90
44215;DHT22;29884;47.450;19.124;2023-11-18T15:37:56;5.90;99.90
44215;DHT22;29884;47.450;19.124;2023-11-18T15:40:21;5.90;99.90
44215;DHT22;29884;47.450;19.124;2023-11-18T15:42:50;5.80;99.90
44215;DHT22;29884;47.450;19.124;2023-11-18T15:45:23;5.80;99.90
44215;DHT22;29884;47.450;19.124;2023-11-18T15:47:50;5.80;99.90
44215;DHT22;29884;47.450;19.124;2023-11-18T15:50:16;5.70;99.90
44215;DHT22;29884;47.450;19.124;2023-11-18T15:52:53;5.70;99.90
44215;DHT22;29884;47.450;19.124;2023-11-18T15:55:23;5.70;99.90
44215;DHT22;29884;47.450;19.124;2023-11-18T15:57:51;5.70;99.90
44215;DHT22;29884;47.450;19.124;2023-11-18T16:00:19;5.70;99.90
44215;DHT22;29884;47.450;19.124;2023-11-18T16:02:51;5.60;99.90
44215;DHT22;29884;47.450;19.124;2023-11-18T16:05:18;5.60;99.90
44215;DHT22;29884;47.450;19.124;2023-11-18T16:07:47;5.70;99.90
44215;DHT22;29884;47.450;19.124;2023-11-18T16:10:14;5.70;99.90
44215;DHT22;29884;47.450;19.124;2023-11-18T16:12:55;5.70;99.90
44215;DHT22;29884;47.450;19.124;2023-11-18T16:15:23;5.70;99.90
44215;DHT22;29884;47.450;19.124;2023-11-18T16:17:49;5.60;99.90